»·PEaware :: EJA220 KHCR-KVNY

EJA220 :: KHCR-KVNY

FLIGHT INFORMATION

Flight Status: Arrived
Operator:
Netjets Aviation
More flights by this operator :: More flights under this callsign
Pilot: Ethan S. (29221)
Aircraft: CANADAIR CL-600 CHALLENGER
(CL60)
More flights by this aircraft type
Origin: KHCR Heber Valley
United States
Destination: KVNY Van Nuys
United States
More flights between these airports :: More routes between these airports
Route: COOLI6 COOLI TCH J9 MLF J107 BLD PURSE JANNY5
File this flight plan on PilotEdge
Remarks:
Altitude:
(Current/Filed)
38,000ft
Speed:
(Current/Filed)
465kts
Departed: 30-Nov-23 01:33 PM
Arrived: 30-Nov-23 03:05 PM
Distance/Time
Traveled:
505nm/1:32
Distance/Time
To Go:
Arrived

Flight Plot

Page will automatically refresh every two minutes.

Flight plan parsing failed; only flown route is shown


Map Options




Map Legend


Flown Route
Filed Route
Departure Airport
Arrival Airport
Navaid (VOR, NDB)
Fix

Horizontal Profiles

Position Reports

Time Latitude Longitude Heading Altitude Ground
Speed
30-Nov-23 12:56 40.483136 -111.424327 228 5627ft 0kts
30-Nov-23 12:57 40.483136 -111.424327 228 5627ft 0kts
30-Nov-23 12:58 40.483136 -111.424327 228 5627ft 0kts
30-Nov-23 12:59 40.483136 -111.424327 228 5627ft 0kts
30-Nov-23 13:00 40.483136 -111.424327 228 5627ft 0kts
30-Nov-23 13:01 40.483136 -111.424327 228 5627ft 0kts
30-Nov-23 13:02 40.483136 -111.424327 228 5627ft 0kts
30-Nov-23 13:03 40.483136 -111.424327 228 5627ft 0kts
30-Nov-23 13:04 40.483136 -111.424327 228 5627ft 0kts
30-Nov-23 13:05 40.483136 -111.424327 228 5627ft 0kts
30-Nov-23 13:06 40.483136 -111.424327 228 5627ft 0kts
30-Nov-23 13:07 40.483136 -111.424327 228 5627ft 0kts
30-Nov-23 13:08 40.483136 -111.424327 228 5627ft 0kts
30-Nov-23 13:09 40.483136 -111.424327 228 5627ft 0kts
30-Nov-23 13:10 40.483136 -111.424327 228 5627ft 0kts
30-Nov-23 13:11 40.483136 -111.424327 228 5627ft 0kts
30-Nov-23 13:12 40.483136 -111.424327 228 5627ft 0kts
30-Nov-23 13:13 40.483136 -111.424327 228 5627ft 0kts
30-Nov-23 13:14 40.483136 -111.424327 228 5627ft 0kts
30-Nov-23 13:15 40.483136 -111.424327 228 5627ft 0kts
30-Nov-23 13:16 40.483136 -111.424327 228 5627ft 0kts
30-Nov-23 13:17 40.483136 -111.424327 228 5627ft 0kts
30-Nov-23 13:18 40.483136 -111.424327 228 5627ft 0kts
30-Nov-23 13:19 40.483018 -111.425588 231 5625ft 10kts
30-Nov-23 13:20 40.481868 -111.426867 230 5623ft 0kts
30-Nov-23 13:21 40.481868 -111.426867 230 5623ft 0kts
30-Nov-23 13:22 40.481868 -111.426867 230 5623ft 0kts
30-Nov-23 13:23 40.481868 -111.426867 230 5623ft 0kts
30-Nov-23 13:24 40.481868 -111.426867 230 5623ft 0kts
30-Nov-23 13:26 40.481868 -111.426867 230 5623ft 0kts
30-Nov-23 13:27 40.481868 -111.426867 230 5623ft 0kts
30-Nov-23 13:28 40.481868 -111.426867 230 5623ft 0kts
30-Nov-23 13:29 40.481755 -111.427216 285 5623ft 5kts
30-Nov-23 13:30 40.479573 -111.430923 230 5615ft 20kts
30-Nov-23 13:31 40.475883 -111.436633 230 5596ft 9kts
30-Nov-23 13:32 40.475829 -111.438024 37 5593ft 7kts
30-Nov-23 13:33 40.496921 -111.405219 48 6644ft 214kts
30-Nov-23 13:34 40.542901 -111.331475 51 9964ft 296kts
30-Nov-23 13:35 40.618555 -111.316755 325 14502ft 318kts
30-Nov-23 13:36 40.707139 -111.356928 348 18087ft 362kts
30-Nov-23 13:37 40.810744 -111.356426 6 21472ft 387kts
30-Nov-23 13:38 40.911438 -111.384447 306 24346ft 397kts
30-Nov-23 13:39 40.894377 -111.513537 214 26792ft 408kts
30-Nov-23 13:40 40.789960 -111.578980 206 28917ft 423kts
30-Nov-23 13:41 40.681646 -111.645491 206 30745ft 435kts
30-Nov-23 13:42 40.572318 -111.712274 205 32932ft 429kts
30-Nov-23 13:43 40.464819 -111.777688 205 34767ft 424kts
30-Nov-23 13:44 40.357191 -111.842934 205 36222ft 424kts
30-Nov-23 13:45 40.249909 -111.907734 205 37486ft 423kts
30-Nov-23 13:46 40.141506 -111.972982 205 37901ft 440kts
30-Nov-23 13:47 40.027472 -112.041368 205 37904ft 459kts
30-Nov-23 13:48 39.910084 -112.111490 205 37910ft 465kts
30-Nov-23 13:49 39.792099 -112.181698 205 37912ft 463kts
30-Nov-23 13:49 39.694211 -112.239745 205 37912ft 463kts
30-Nov-23 13:51 39.557115 -112.320738 205 37912ft 463kts
30-Nov-23 13:52 39.439097 -112.390178 205 37912ft 463kts
30-Nov-23 13:53 39.321621 -112.459042 205 37912ft 463kts
30-Nov-23 13:53 39.223414 -112.516415 205 37911ft 464kts
30-Nov-23 13:54 39.105553 -112.585038 205 37912ft 464kts
30-Nov-23 13:56 38.968082 -112.664758 204 37913ft 464kts
30-Nov-23 13:57 38.849908 -112.733019 204 37912ft 464kts
30-Nov-23 13:57 38.751752 -112.789527 204 37912ft 464kts
30-Nov-23 13:58 38.633802 -112.857205 204 37912ft 464kts
30-Nov-23 13:59 38.515658 -112.924750 204 37912ft 463kts
30-Nov-23 14:00 38.397728 -112.991938 204 37912ft 463kts
30-Nov-23 14:02 38.267714 -113.088062 213 37912ft 463kts
30-Nov-23 14:02 38.176812 -113.162041 213 37912ft 463kts
30-Nov-23 14:03 38.067971 -113.250227 213 37912ft 463kts
30-Nov-23 14:04 37.958955 -113.338175 213 37912ft 463kts
30-Nov-23 14:05 37.859251 -113.418165 213 37912ft 463kts
30-Nov-23 14:07 37.731794 -113.519717 213 37911ft 463kts
30-Nov-23 14:07 37.640890 -113.591880 213 37912ft 463kts
30-Nov-23 14:08 37.532162 -113.677913 212 37914ft 463kts
30-Nov-23 14:09 37.422873 -113.764089 212 37912ft 463kts
30-Nov-23 14:10 37.313384 -113.850120 212 37912ft 463kts
30-Nov-23 14:11 37.203546 -113.936127 212 37912ft 463kts
30-Nov-23 14:12 37.094117 -114.021522 212 37912ft 463kts
30-Nov-23 14:13 36.984732 -114.106589 212 37912ft 463kts
30-Nov-23 14:14 36.874983 -114.191671 212 37913ft 463kts
30-Nov-23 14:15 36.765215 -114.276489 212 37912ft 463kts
30-Nov-23 14:16 36.655268 -114.360308 212 37912ft 463kts
30-Nov-23 14:17 36.545010 -114.443991 212 37911ft 463kts
30-Nov-23 14:18 36.434755 -114.527751 212 37912ft 463kts
30-Nov-23 14:19 36.324894 -114.612234 212 37911ft 463kts
30-Nov-23 14:20 36.215949 -114.695729 212 37913ft 463kts
30-Nov-23 14:21 36.105709 -114.780018 212 37911ft 463kts
30-Nov-23 14:22 35.996135 -114.863636 213 37912ft 463kts
30-Nov-23 14:23 35.889405 -114.950082 213 37912ft 463kts
30-Nov-23 14:24 35.781258 -115.037620 213 37912ft 463kts
30-Nov-23 14:25 35.673205 -115.124770 213 37912ft 463kts
30-Nov-23 14:26 35.567661 -115.215039 224 37910ft 462kts
30-Nov-23 14:27 35.481262 -115.332059 228 37912ft 462kts
30-Nov-23 14:28 35.394952 -115.449808 228 37910ft 462kts
30-Nov-23 14:29 35.309186 -115.565812 228 36636ft 451kts
30-Nov-23 14:30 35.225660 -115.678075 227 33864ft 445kts
30-Nov-23 14:31 35.144625 -115.786547 227 31841ft 428kts
30-Nov-23 14:32 35.076866 -115.906015 238 29555ft 428kts
30-Nov-23 14:33 35.015872 -116.027787 238 27328ft 411kts
30-Nov-23 14:34 34.956495 -116.144658 238 25176ft 398kts
30-Nov-23 14:35 34.902406 -116.259233 245 23808ft 384kts
30-Nov-23 14:36 34.856947 -116.377848 245 23839ft 390kts
30-Nov-23 14:37 34.810590 -116.497265 244 23762ft 391kts
30-Nov-23 14:38 34.779228 -116.620354 264 22382ft 379kts
30-Nov-23 14:39 34.768511 -116.747949 262 21541ft 377kts
30-Nov-23 14:40 34.756514 -116.873825 262 20673ft 372kts
30-Nov-23 14:41 34.744072 -116.997776 262 19817ft 367kts
30-Nov-23 14:42 34.731569 -117.120485 262 18970ft 362kts
30-Nov-23 14:43 34.719149 -117.241059 262 18137ft 357kts
30-Nov-23 14:44 34.706722 -117.360504 262 17312ft 353kts
30-Nov-23 14:45 34.694379 -117.477965 262 16501ft 348kts
30-Nov-23 14:46 34.682045 -117.593876 262 15733ft 344kts
30-Nov-23 14:47 34.669842 -117.708816 261 14939ft 340kts
30-Nov-23 14:48 34.657751 -117.822169 261 14155ft 336kts
30-Nov-23 14:49 34.645632 -117.934074 261 13030ft 330kts
30-Nov-23 14:50 34.633637 -118.043428 261 11707ft 322kts
30-Nov-23 14:51 34.613974 -118.143913 254 10492ft 293kts
30-Nov-23 14:52 34.593093 -118.236301 254 9347ft 278kts
30-Nov-23 14:53 34.573070 -118.325721 254 8247ft 266kts
30-Nov-23 14:54 34.554446 -118.408718 254 7889ft 241kts
30-Nov-23 14:55 34.535381 -118.484814 236 7111ft 226kts
30-Nov-23 14:56 34.482346 -118.514989 195 6225ft 203kts
30-Nov-23 14:57 34.429693 -118.511375 178 5438ft 160kts
30-Nov-23 14:58 34.390296 -118.507493 178 4735ft 135kts
30-Nov-23 14:59 34.353016 -118.503956 179 3960ft 133kts
30-Nov-23 15:00 34.316229 -118.500527 179 3105ft 131kts
30-Nov-23 15:01 34.280331 -118.497110 178 2316ft 129kts
30-Nov-23 15:02 34.244740 -118.493732 179 1513ft 128kts
30-Nov-23 15:03 34.209741 -118.490364 177 786ft 111kts
30-Nov-23 15:04 34.203445 -118.490793 188 769ft 0kts
30-Nov-23 15:05 34.203445 -118.490793 188 769ft 0kts
30-Nov-23 15:06 34.202936 -118.491690 187 767ft 3kts
30-Nov-23 15:07 34.202844 -118.491691 180 767ft 0kts

Navigation Log

Ident Type
Flight plan parsing failed, navigation log unavailable